sensor_id;sensor_type;location;lat;lon;timestamp;temperature;humidity
11087;DHT22;5597;47.588;9.642;2023-09-19T00:02:23;16.40;99.90
11087;DHT22;5597;47.588;9.642;2023-09-19T00:04:48;16.50;99.90
11087;DHT22;5597;47.588;9.642;2023-09-19T00:07:15;16.50;99.90
11087;DHT22;5597;47.588;9.642;2023-09-19T00:09:41;16.40;99.90
11087;DHT22;5597;47.588;9.642;2023-09-19T00:12:09;16.50;99.90
11087;DHT22;5597;47.588;9.642;2023-09-19T00:14:35;16.50;99.90
11087;DHT22;5597;47.588;9.642;2023-09-19T00:17:03;16.50;99.90
11087;DHT22;5597;47.588;9.642;2023-09-19T00:19:36;16.40;99.90
11087;DHT22;5597;47.588;9.642;2023-09-19T00:22:03;16.40;99.90
11087;DHT22;5597;47.588;9.642;2023-09-19T00:24:29;16.40;99.90
11087;DHT22;5597;47.588;9.642;2023-09-19T00:26:56;16.40;99.90
11087;DHT22;5597;47.588;9.642;2023-09-19T00:29:21;16.40;99.90
11087;DHT22;5597;47.588;9.642;2023-09-19T00:31:49;16.30;99.90
11087;DHT22;5597;47.588;9.642;2023-09-19T00:34:15;16.30;99.90
11087;DHT22;5597;47.588;9.642;2023-09-19T00:36:42;16.30;99.90
11087;DHT22;5597;47.588;9.642;2023-09-19T00:39:08;16.30;99.90
11087;DHT22;5597;47.588;9.642;2023-09-19T00:41:35;16.30;99.90
11087;DHT22;5597;47.588;9.642;2023-09-19T00:44:02;16.30;99.90
11087;DHT22;5597;47.588;9.642;2023-09-19T00:46:32;16.30;99.90
11087;DHT22;5597;47.588;9.642;2023-09-19T00:48:58;16.20;99.90
11087;DHT22;5597;47.588;9.642;2023-09-19T00:51:25;16.20;99.90
11087;DHT22;5597;47.588;9.642;2023-09-19T00:53:52;16.20;99.90
11087;DHT22;5597;47.588;9.642;2023-09-19T00:56:19;16.20;99.90
11087;DHT22;5597;47.588;9.642;2023-09-19T00:58:45;16.20;99.90
11087;DHT22;5597;47.588;9.642;2023-09-19T01:01:12;16.20;99.90
11087;DHT22;5597;47.588;9.642;2023-09-19T01:03:40;16.20;99.90
11087;DHT22;5597;47.588;9.642;2023-09-19T01:06:06;16.20;99.90
11087;DHT22;5597;47.588;9.642;2023-09-19T01:08:33;16.20;99.90
11087;DHT22;5597;47.588;9.642;2023-09-19T01:16:38;16.30;99.90
11087;DHT22;5597;47.588;9.642;2023-09-19T01:22:00;16.40;99.90
11087;DHT22;5597;47.588;9.642;2023-09-19T01:24:40;16.40;99.90
11087;DHT22;5597;47.588;9.642;2023-09-19T01:29:49;16.40;99.90
11087;DHT22;5597;47.588;9.642;2023-09-19T01:32:21;16.50;99.90
11087;DHT22;5597;47.588;9.642;2023-09-19T01:34:47;16.50;99.90
11087;DHT22;5597;47.588;9.642;2023-09-19T01:37:15;16.60;99.90
11087;DHT22;5597;47.588;9.642;2023-09-19T01:39:49;16.60;99.90
11087;DHT22;5597;47.588;9.642;2023-09-19T01:45:03;16.80;99.90
11087;DHT22;5597;47.588;9.642;2023-09-19T01:47:35;16.90;99.90
11087;DHT22;5597;47.588;9.642;2023-09-19T01:50:20;16.90;99.90
11087;DHT22;5597;47.588;9.642;2023-09-19T01:52:57;17.00;99.90
11087;DHT22;5597;47.588;9.642;2023-09-19T01:55:24;17.10;99.90
11087;DHT22;5597;47.588;9.642;2023-09-19T01:58:04;17.10;99.90
11087;DHT22;5597;47.588;9.642;2023-09-19T02:00:34;17.10;99.90
11087;DHT22;5597;47.588;9.642;2023-09-19T02:03:02;17.10;99.90
11087;DHT22;5597;47.588;9.642;2023-09-19T02:05:28;17.10;99.90
11087;DHT22;5597;47.588;9.642;2023-09-19T02:07:54;17.10;99.90
11087;DHT22;5597;47.588;9.642;2023-09-19T02:10:21;17.10;99.90
11087;DHT22;5597;47.588;9.642;2023-09-19T02:12:46;17.20;99.90
11087;DHT22;5597;47.588;9.642;2023-09-19T02:15:13;17.20;99.90
11087;DHT22;5597;47.588;9.642;2023-09-19T02:17:41;17.20;99.90
11087;DHT22;5597;47.588;9.642;2023-09-19T02:20:08;17.20;99.90
11087;DHT22;5597;47.588;9.642;2023-09-19T02:22:35;17.20;99.90
11087;DHT22;5597;47.588;9.642;2023-09-19T02:25:01;17.20;99.90
11087;DHT22;5597;47.588;9.642;2023-09-19T02:27:30;17.20;99.90
11087;DHT22;5597;47.588;9.642;2023-09-19T02:29:56;17.20;99.90
11087;DHT22;5597;47.588;9.642;2023-09-19T02:32:22;17.20;99.90
11087;DHT22;5597;47.588;9.642;2023-09-19T02:34:48;17.20;99.90
11087;DHT22;5597;47.588;9.642;2023-09-19T02:37:14;17.20;99.90
11087;DHT22;5597;47.588;9.642;2023-09-19T02:39:41;17.20;99.90
11087;DHT22;5597;47.588;9.642;2023-09-19T02:42:07;17.10;99.90
11087;DHT22;5597;47.588;9.642;2023-09-19T02:44:33;17.10;99.90
11087;DHT22;5597;47.588;9.642;2023-09-19T02:46:59;17.10;99.90
11087;DHT22;5597;47.588;9.642;2023-09-19T02:49:25;17.10;99.90
11087;DHT22;5597;47.588;9.642;2023-09-19T02:51:50;17.10;99.90
11087;DHT22;5597;47.588;9.642;2023-09-19T02:54:17;17.10;99.90
11087;DHT22;5597;47.588;9.642;2023-09-19T02:56:43;17.10;99.90
11087;DHT22;5597;47.588;9.642;2023-09-19T02:59:08;17.00;99.90
11087;DHT22;5597;47.588;9.642;2023-09-19T03:01:36;17.00;99.90
11087;DHT22;5597;47.588;9.642;2023-09-19T03:04:03;17.00;99.90
11087;DHT22;5597;47.588;9.642;2023-09-19T03:06:28;17.00;99.90
11087;DHT22;5597;47.588;9.642;2023-09-19T03:08:56;17.00;99.90
11087;DHT22;5597;47.588;9.642;2023-09-19T03:11:22;17.00;99.90
11087;DHT22;5597;47.588;9.642;2023-09-19T03:13:55;17.00;99.90
11087;DHT22;5597;47.588;9.642;2023-09-19T03:16:21;17.00;99.90
11087;DHT22;5597;47.588;9.642;2023-09-19T03:18:51;17.00;99.90
11087;DHT22;5597;47.588;9.642;2023-09-19T03:21:17;17.00;99.90
11087;DHT22;5597;47.588;9.642;2023-09-19T03:23:43;17.00;99.90
11087;DHT22;5597;47.588;9.642;2023-09-19T03:26:14;17.00;99.90
11087;DHT22;5597;47.588;9.642;2023-09-19T03:28:41;17.00;99.90
11087;DHT22;5597;47.588;9.642;2023-09-19T03:31:08;17.00;99.90
11087;DHT22;5597;47.588;9.642;2023-09-19T03:33:34;17.00;99.90
11087;DHT22;5597;47.588;9.642;2023-09-19T03:36:01;17.00;99.90
11087;DHT22;5597;47.588;9.642;2023-09-19T03:38:30;17.00;99.90
11087;DHT22;5597;47.588;9.642;2023-09-19T03:40:56;17.00;99.90
11087;DHT22;5597;47.588;9.642;2023-09-19T03:43:21;17.10;99.90
11087;DHT22;5597;47.588;9.642;2023-09-19T03:45:47;17.10;99.90
11087;DHT22;5597;47.588;9.642;2023-09-19T03:48:12;17.10;99.90
11087;DHT22;5597;47.588;9.642;2023-09-19T03:50:38;17.10;99.90
11087;DHT22;5597;47.588;9.642;2023-09-19T03:53:05;17.10;99.90
11087;DHT22;5597;47.588;9.642;2023-09-19T03:55:32;17.10;99.90
11087;DHT22;5597;47.588;9.642;2023-09-19T03:58:01;17.20;99.90
11087;DHT22;5597;47.588;9.642;2023-09-19T04:00:26;17.20;99.90
11087;DHT22;5597;47.588;9.642;2023-09-19T04:02:52;17.20;99.90
11087;DHT22;5597;47.588;9.642;2023-09-19T04:05:18;17.20;99.90
11087;DHT22;5597;47.588;9.642;2023-09-19T04:07:44;17.20;99.90
11087;DHT22;5597;47.588;9.642;2023-09-19T04:10:10;17.20;99.90
11087;DHT22;5597;47.588;9.642;2023-09-19T04:12:37;17.20;99.90
11087;DHT22;5597;47.588;9.642;2023-09-19T04:15:04;17.20;99.90
11087;DHT22;5597;47.588;9.642;2023-09-19T04:17:30;17.20;99.90
11087;DHT22;5597;47.588;9.642;2023-09-19T04:19:58;17.20;99.90
11087;DHT22;5597;47.588;9.642;2023-09-19T04:22:24;17.20;99.90
11087;DHT22;5597;47.588;9.642;2023-09-19T04:24:50;17.20;99.90
11087;DHT22;5597;47.588;9.642;2023-09-19T04:27:15;17.30;99.90
11087;DHT22;5597;47.588;9.642;2023-09-19T04:29:41;17.20;99.90
11087;DHT22;5597;47.588;9.642;2023-09-19T04:32:09;17.30;99.90
11087;DHT22;5597;47.588;9.642;2023-09-19T04:34:35;17.20;99.90
11087;DHT22;5597;47.588;9.642;2023-09-19T04:37:01;17.20;99.90
11087;DHT22;5597;47.588;9.642;2023-09-19T04:39:27;17.20;99.90
11087;DHT22;5597;47.588;9.642;2023-09-19T04:41:53;17.30;99.90
11087;DHT22;5597;47.588;9.642;2023-09-19T04:44:20;17.20;99.90
11087;DHT22;5597;47.588;9.642;2023-09-19T04:46:46;17.30;99.90
11087;DHT22;5597;47.588;9.642;2023-09-19T04:49:12;17.20;99.90
11087;DHT22;5597;47.588;9.642;2023-09-19T04:51:38;17.20;99.90
11087;DHT22;5597;47.588;9.642;2023-09-19T04:54:05;17.20;99.90
11087;DHT22;5597;47.588;9.642;2023-09-19T04:56:31;17.20;99.90
11087;DHT22;5597;47.588;9.642;2023-09-19T04:58:57;17.20;99.90
11087;DHT22;5597;47.588;9.642;2023-09-19T05:01:24;17.10;99.90
11087;DHT22;5597;47.588;9.642;2023-09-19T05:03:50;17.10;99.90
11087;DHT22;5597;47.588;9.642;2023-09-19T05:06:19;17.10;99.90
11087;DHT22;5597;47.588;9.642;2023-09-19T05:08:48;17.00;99.90
11087;DHT22;5597;47.588;9.642;2023-09-19T05:11:17;17.00;99.90
11087;DHT22;5597;47.588;9.642;2023-09-19T05:13:43;17.00;99.90
11087;DHT22;5597;47.588;9.642;2023-09-19T05:16:09;17.00;99.90
11087;DHT22;5597;47.588;9.642;2023-09-19T05:18:35;17.00;99.90
11087;DHT22;5597;47.588;9.642;2023-09-19T05:21:04;16.90;99.90
11087;DHT22;5597;47.588;9.642;2023-09-19T05:23:30;16.90;99.90
11087;DHT22;5597;47.588;9.642;2023-09-19T05:25:56;16.90;99.90
11087;DHT22;5597;47.588;9.642;2023-09-19T05:28:24;16.90;99.90
11087;DHT22;5597;47.588;9.642;2023-09-19T05:30:49;16.90;99.90
11087;DHT22;5597;47.588;9.642;2023-09-19T05:33:15;16.90;99.90
11087;DHT22;5597;47.588;9.642;2023-09-19T05:35:41;16.90;99.90
11087;DHT22;5597;47.588;9.642;2023-09-19T05:38:07;16.90;99.90
11087;DHT22;5597;47.588;9.642;2023-09-19T05:40:34;16.90;99.90
11087;DHT22;5597;47.588;9.642;2023-09-19T05:43:01;16.90;99.90
11087;DHT22;5597;47.588;9.642;2023-09-19T05:45:27;16.90;99.90
11087;DHT22;5597;47.588;9.642;2023-09-19T05:47:53;16.90;99.90
11087;DHT22;5597;47.588;9.642;2023-09-19T05:50:29;17.00;99.90
11087;DHT22;5597;47.588;9.642;2023-09-19T05:52:55;17.10;99.90
11087;DHT22;5597;47.588;9.642;2023-09-19T05:55:23;17.10;99.90
11087;DHT22;5597;47.588;9.642;2023-09-19T05:57:54;17.10;99.90
11087;DHT22;5597;47.588;9.642;2023-09-19T06:00:20;17.20;99.90
11087;DHT22;5597;47.588;9.642;2023-09-19T06:02:52;17.20;99.90
11087;DHT22;5597;47.588;9.642;2023-09-19T06:05:18;17.30;99.90
11087;DHT22;5597;47.588;9.642;2023-09-19T06:07:45;17.30;99.90
11087;DHT22;5597;47.588;9.642;2023-09-19T06:10:10;17.40;99.90
11087;DHT22;5597;47.588;9.642;2023-09-19T06:12:40;17.40;99.90
11087;DHT22;5597;47.588;9.642;2023-09-19T06:15:06;17.40;99.90
11087;DHT22;5597;47.588;9.642;2023-09-19T06:17:34;17.40;99.90
11087;DHT22;5597;47.588;9.642;2023-09-19T06:20:05;17.50;99.90
11087;DHT22;5597;47.588;9.642;2023-09-19T06:22:35;17.50;99.90
11087;DHT22;5597;47.588;9.642;2023-09-19T06:25:01;17.50;99.90
11087;DHT22;5597;47.588;9.642;2023-09-19T06:27:27;17.60;99.90
11087;DHT22;5597;47.588;9.642;2023-09-19T06:29:53;17.60;99.90
11087;DHT22;5597;47.588;9.642;2023-09-19T06:32:18;17.60;99.90
11087;DHT22;5597;47.588;9.642;2023-09-19T06:34:44;17.70;99.90
11087;DHT22;5597;47.588;9.642;2023-09-19T06:37:11;17.70;99.90
11087;DHT22;5597;47.588;9.642;2023-09-19T06:39:37;17.70;99.90
11087;DHT22;5597;47.588;9.642;2023-09-19T06:42:03;17.70;99.90
11087;DHT22;5597;47.588;9.642;2023-09-19T06:44:29;17.80;99.90
11087;DHT22;5597;47.588;9.642;2023-09-19T06:46:57;17.90;99.90
11087;DHT22;5597;47.588;9.642;2023-09-19T06:49:23;17.90;99.90
11087;DHT22;5597;47.588;9.642;2023-09-19T06:51:48;18.00;99.90
11087;DHT22;5597;47.588;9.642;2023-09-19T06:54:14;18.00;99.90
11087;DHT22;5597;47.588;9.642;2023-09-19T06:56:40;18.10;99.90
11087;DHT22;5597;47.588;9.642;2023-09-19T06:59:06;18.20;99.90
11087;DHT22;5597;47.588;9.642;2023-09-19T07:01:32;18.20;99.90
11087;DHT22;5597;47.588;9.642;2023-09-19T07:03:59;18.30;99.90
11087;DHT22;5597;47.588;9.642;2023-09-19T07:06:24;18.40;99.90
11087;DHT22;5597;47.588;9.642;2023-09-19T07:08:50;18.40;99.90
11087;DHT22;5597;47.588;9.642;2023-09-19T07:11:16;18.40;99.90
11087;DHT22;5597;47.588;9.642;2023-09-19T07:13:42;18.50;99.90
11087;DHT22;5597;47.588;9.642;2023-09-19T07:16:07;18.50;99.90
11087;DHT22;5597;47.588;9.642;2023-09-19T07:18:35;18.50;99.90
11087;DHT22;5597;47.588;9.642;2023-09-19T07:21:02;18.60;99.90
11087;DHT22;5597;47.588;9.642;2023-09-19T07:23:30;18.70;99.90
11087;DHT22;5597;47.588;9.642;2023-09-19T07:26:00;18.70;99.90
11087;DHT22;5597;47.588;9.642;2023-09-19T07:28:26;18.70;99.90
11087;DHT22;5597;47.588;9.642;2023-09-19T07:30:52;18.70;99.90
11087;DHT22;5597;47.588;9.642;2023-09-19T07:33:18;18.70;99.90
11087;DHT22;5597;47.588;9.642;2023-09-19T07:35:47;18.70;99.90
11087;DHT22;5597;47.588;9.642;2023-09-19T07:38:13;18.70;99.90
11087;DHT22;5597;47.588;9.642;2023-09-19T07:40:39;18.70;99.90
11087;DHT22;5597;47.588;9.642;2023-09-19T07:43:05;18.70;99.90
11087;DHT22;5597;47.588;9.642;2023-09-19T07:45:32;18.70;99.90
11087;DHT22;5597;47.588;9.642;2023-09-19T07:47:58;18.70;99.90
11087;DHT22;5597;47.588;9.642;2023-09-19T07:50:25;18.80;99.90
11087;DHT22;5597;47.588;9.642;2023-09-19T07:52:52;18.90;99.90
11087;DHT22;5597;47.588;9.642;2023-09-19T07:55:19;19.00;99.90
11087;DHT22;5597;47.588;9.642;2023-09-19T07:57:48;19.10;99.90
11087;DHT22;5597;47.588;9.642;2023-09-19T08:00:14;19.10;99.90
11087;DHT22;5597;47.588;9.642;2023-09-19T08:02:41;19.10;99.90
11087;DHT22;5597;47.588;9.642;2023-09-19T08:05:08;19.10;99.90
11087;DHT22;5597;47.588;9.642;2023-09-19T08:07:40;19.10;99.90
11087;DHT22;5597;47.588;9.642;2023-09-19T08:10:07;19.10;99.90
11087;DHT22;5597;47.588;9.642;2023-09-19T08:12:40;19.10;99.90
11087;DHT22;5597;47.588;9.642;2023-09-19T08:15:20;19.20;99.90
11087;DHT22;5597;47.588;9.642;2023-09-19T08:17:46;19.20;99.90
11087;DHT22;5597;47.588;9.642;2023-09-19T08:20:13;19.10;99.90
11087;DHT22;5597;47.588;9.642;2023-09-19T08:22:49;19.10;99.90
11087;DHT22;5597;47.588;9.642;2023-09-19T08:25:18;19.10;99.90
11087;DHT22;5597;47.588;9.642;2023-09-19T08:27:45;19.10;99.90
11087;DHT22;5597;47.588;9.642;2023-09-19T08:30:21;19.00;99.90
11087;DHT22;5597;47.588;9.642;2023-09-19T08:32:57;19.10;99.90
11087;DHT22;5597;47.588;9.642;2023-09-19T08:35:27;19.10;99.90
11087;DHT22;5597;47.588;9.642;2023-09-19T08:37:52;19.10;99.90
11087;DHT22;5597;47.588;9.642;2023-09-19T08:40:18;19.20;99.90
11087;DHT22;5597;47.588;9.642;2023-09-19T08:43:02;19.30;99.90
11087;DHT22;5597;47.588;9.642;2023-09-19T08:45:28;19.70;99.90
11087;DHT22;5597;47.588;9.642;2023-09-19T08:48:39;19.90;99.90
11087;DHT22;5597;47.588;9.642;2023-09-19T08:50:49;20.10;99.90
11087;DHT22;5597;47.588;9.642;2023-09-19T08:53:26;20.30;99.90
11087;DHT22;5597;47.588;9.642;2023-09-19T08:55:53;20.50;99.90
11087;DHT22;5597;47.588;9.642;2023-09-19T08:58:25;20.70;99.90
11087;DHT22;5597;47.588;9.642;2023-09-19T09:00:54;21.00;99.90
11087;DHT22;5597;47.588;9.642;2023-09-19T09:03:20;21.40;99.90
11087;DHT22;5597;47.588;9.642;2023-09-19T09:05:47;21.60;99.90
11087;DHT22;5597;47.588;9.642;2023-09-19T09:08:16;21.70;99.90
11087;DHT22;5597;47.588;9.642;2023-09-19T09:10:44;21.70;99.90
11087;DHT22;5597;47.588;9.642;2023-09-19T09:13:10;21.80;99.90
11087;DHT22;5597;47.588;9.642;2023-09-19T09:15:41;21.90;99.90
11087;DHT22;5597;47.588;9.642;2023-09-19T09:18:06;21.90;99.90
11087;DHT22;5597;47.588;9.642;2023-09-19T09:20:32;22.00;99.90
11087;DHT22;5597;47.588;9.642;2023-09-19T09:22:58;22.00;99.90
11087;DHT22;5597;47.588;9.642;2023-09-19T09:28:19;21.80;99.90
11087;DHT22;5597;47.588;9.642;2023-09-19T09:30:46;21.80;99.90
11087;DHT22;5597;47.588;9.642;2023-09-19T09:33:13;21.80;99.90
11087;DHT22;5597;47.588;9.642;2023-09-19T09:36:00;21.80;99.90
11087;DHT22;5597;47.588;9.642;2023-09-19T09:38:42;21.80;99.90
11087;DHT22;5597;47.588;9.642;2023-09-19T09:41:09;21.70;99.90
11087;DHT22;5597;47.588;9.642;2023-09-19T09:43:36;21.80;99.90
11087;DHT22;5597;47.588;9.642;2023-09-19T09:51:50;21.70;99.90
11087;DHT22;5597;47.588;9.642;2023-09-19T09:54:26;21.60;99.90
11087;DHT22;5597;47.588;9.642;2023-09-19T09:57:02;21.40;99.90
11087;DHT22;5597;47.588;9.642;2023-09-19T09:59:47;21.30;99.90
11087;DHT22;5597;47.588;9.642;2023-09-19T10:02:14;21.10;99.90
11087;DHT22;5597;47.588;9.642;2023-09-19T10:04:42;21.00;99.90
11087;DHT22;5597;47.588;9.642;2023-09-19T10:07:30;20.80;99.90
11087;DHT22;5597;47.588;9.642;2023-09-19T10:10:03;20.70;99.90
11087;DHT22;5597;47.588;9.642;2023-09-19T10:12:48;20.60;99.90
11087;DHT22;5597;47.588;9.642;2023-09-19T10:15:19;20.60;99.90
11087;DHT22;5597;47.588;9.642;2023-09-19T10:17:51;20.60;99.90
11087;DHT22;5597;47.588;9.642;2023-09-19T10:20:21;20.60;99.90
11087;DHT22;5597;47.588;9.642;2023-09-19T10:22:50;20.60;99.90
11087;DHT22;5597;47.588;9.642;2023-09-19T10:25:26;20.60;99.90
11087;DHT22;5597;47.588;9.642;2023-09-19T10:27:54;20.50;99.90
11087;DHT22;5597;47.588;9.642;2023-09-19T10:30:22;20.40;99.90
11087;DHT22;5597;47.588;9.642;2023-09-19T10:32:57;20.50;99.90
11087;DHT22;5597;47.588;9.642;2023-09-19T10:35:25;20.80;99.90
11087;DHT22;5597;47.588;9.642;2023-09-19T10:37:51;21.20;99.90
11087;DHT22;5597;47.588;9.642;2023-09-19T10:40:20;21.50;99.90
11087;DHT22;5597;47.588;9.642;2023-09-19T10:42:48;21.70;99.90
11087;DHT22;5597;47.588;9.642;2023-09-19T10:45:16;21.80;99.90
11087;DHT22;5597;47.588;9.642;2023-09-19T10:47:43;21.80;99.90
11087;DHT22;5597;47.588;9.642;2023-09-19T10:50:09;21.90;99.90
11087;DHT22;5597;47.588;9.642;2023-09-19T10:52:47;22.10;99.90
11087;DHT22;5597;47.588;9.642;2023-09-19T10:55:19;22.20;99.90
11087;DHT22;5597;47.588;9.642;2023-09-19T10:57:47;22.30;99.90
11087;DHT22;5597;47.588;9.642;2023-09-19T11:00:13;22.40;99.90
11087;DHT22;5597;47.588;9.642;2023-09-19T11:03:23;22.50;99.90
11087;DHT22;5597;47.588;9.642;2023-09-19T11:09:05;22.50;99.90
11087;DHT22;5597;47.588;9.642;2023-09-19T11:11:46;22.40;99.90
11087;DHT22;5597;47.588;9.642;2023-09-19T11:30:50;22.30;99.90
11087;DHT22;5597;47.588;9.642;2023-09-19T11:33:31;22.40;99.90
11087;DHT22;5597;47.588;9.642;2023-09-19T11:49:31;22.40;99.90
11087;DHT22;5597;47.588;9.642;2023-09-19T11:51:59;22.40;99.90
11087;DHT22;5597;47.588;9.642;2023-09-19T11:54:27;22.40;99.90
11087;DHT22;5597;47.588;9.642;2023-09-19T11:56:57;22.40;99.90
11087;DHT22;5597;47.588;9.642;2023-09-19T11:59:24;22.60;99.90
11087;DHT22;5597;47.588;9.642;2023-09-19T12:02:10;22.90;99.90
11087;DHT22;5597;47.588;9.642;2023-09-19T12:04:42;23.00;99.90
11087;DHT22;5597;47.588;9.642;2023-09-19T12:07:16;23.00;99.90
11087;DHT22;5597;47.588;9.642;2023-09-19T12:09:43;23.10;99.90
11087;DHT22;5597;47.588;9.642;2023-09-19T12:12:19;23.30;99.90
11087;DHT22;5597;47.588;9.642;2023-09-19T12:14:49;23.60;99.90
11087;DHT22;5597;47.588;9.642;2023-09-19T12:17:16;23.90;99.90
11087;DHT22;5597;47.588;9.642;2023-09-19T12:19:53;24.10;99.90
11087;DHT22;5597;47.588;9.642;2023-09-19T12:22:19;24.20;99.90
11087;DHT22;5597;47.588;9.642;2023-09-19T12:24:46;24.40;99.90
11087;DHT22;5597;47.588;9.642;2023-09-19T12:27:13;24.60;99.90
11087;DHT22;5597;47.588;9.642;2023-09-19T12:29:46;24.70;99.90
11087;DHT22;5597;47.588;9.642;2023-09-19T12:32:14;25.00;99.90
11087;DHT22;5597;47.588;9.642;2023-09-19T12:34:42;25.20;99.90
11087;DHT22;5597;47.588;9.642;2023-09-19T12:39:45;25.70;99.90
11087;DHT22;5597;47.588;9.642;2023-09-19T12:42:22;25.80;99.90
11087;DHT22;5597;47.588;9.642;2023-09-19T12:44:50;25.90;99.90
11087;DHT22;5597;47.588;9.642;2023-09-19T12:47:22;25.90;99.90
11087;DHT22;5597;47.588;9.642;2023-09-19T12:50:09;25.90;99.90
11087;DHT22;5597;47.588;9.642;2023-09-19T12:52:49;25.90;99.90
11087;DHT22;5597;47.588;9.642;2023-09-19T12:58:13;26.30;99.90
11087;DHT22;5597;47.588;9.642;2023-09-19T13:00:45;26.40;99.90
11087;DHT22;5597;47.588;9.642;2023-09-19T13:06:00;26.50;99.90
11087;DHT22;5597;47.588;9.642;2023-09-19T13:08:35;26.70;99.90
11087;DHT22;5597;47.588;9.642;2023-09-19T13:11:14;26.80;99.90
11087;DHT22;5597;47.588;9.642;2023-09-19T13:13:46;26.90;99.90
11087;DHT22;5597;47.588;9.642;2023-09-19T13:16:19;26.90;99.90
11087;DHT22;5597;47.588;9.642;2023-09-19T13:18:51;27.00;99.90
11087;DHT22;5597;47.588;9.642;2023-09-19T13:21:34;27.10;99.90
11087;DHT22;5597;47.588;9.642;2023-09-19T13:24:22;27.20;99.90
11087;DHT22;5597;47.588;9.642;2023-09-19T13:26:51;27.20;99.90
11087;DHT22;5597;47.588;9.642;2023-09-19T13:29:16;27.20;99.90
11087;DHT22;5597;47.588;9.642;2023-09-19T13:31:47;27.30;99.90
11087;DHT22;5597;47.588;9.642;2023-09-19T13:34:13;27.40;99.90
11087;DHT22;5597;47.588;9.642;2023-09-19T13:36:41;27.60;99.90
11087;DHT22;5597;47.588;9.642;2023-09-19T13:39:07;27.70;99.90
11087;DHT22;5597;47.588;9.642;2023-09-19T13:41:37;27.80;99.90
11087;DHT22;5597;47.588;9.642;2023-09-19T13:44:03;27.80;99.90
11087;DHT22;5597;47.588;9.642;2023-09-19T13:46:30;27.80;99.90
11087;DHT22;5597;47.588;9.642;2023-09-19T13:48:58;27.80;99.90
11087;DHT22;5597;47.588;9.642;2023-09-19T13:51:26;27.90;99.90
11087;DHT22;5597;47.588;9.642;2023-09-19T13:53:52;28.00;99.90
11087;DHT22;5597;47.588;9.642;2023-09-19T13:56:17;28.10;99.90
11087;DHT22;5597;47.588;9.642;2023-09-19T13:58:43;28.10;99.90
11087;DHT22;5597;47.588;9.642;2023-09-19T14:01:08;27.90;99.90
11087;DHT22;5597;47.588;9.642;2023-09-19T14:03:41;27.80;99.90
11087;DHT22;5597;47.588;9.642;2023-09-19T14:06:15;27.80;99.90
11087;DHT22;5597;47.588;9.642;2023-09-19T14:08:41;27.80;99.90
11087;DHT22;5597;47.588;9.642;2023-09-19T14:11:08;27.90;99.90
11087;DHT22;5597;47.588;9.642;2023-09-19T14:13:34;28.00;99.90
11087;DHT22;5597;47.588;9.642;2023-09-19T14:16:06;28.20;99.90
11087;DHT22;5597;47.588;9.642;2023-09-19T14:18:34;28.30;99.90
11087;DHT22;5597;47.588;9.642;2023-09-19T14:21:04;28.30;99.90
11087;DHT22;5597;47.588;9.642;2023-09-19T14:23:35;28.20;99.90
11087;DHT22;5597;47.588;9.642;2023-09-19T14:26:01;28.10;99.90
11087;DHT22;5597;47.588;9.642;2023-09-19T14:28:27;28.10;99.90
11087;DHT22;5597;47.588;9.642;2023-09-19T14:30:54;28.10;99.90
11087;DHT22;5597;47.588;9.642;2023-09-19T14:33:20;28.10;99.90
11087;DHT22;5597;47.588;9.642;2023-09-19T14:35:45;28.10;99.70
11087;DHT22;5597;47.588;9.642;2023-09-19T14:38:11;28.00;99.90
11087;DHT22;5597;47.588;9.642;2023-09-19T14:40:36;28.00;99.90
11087;DHT22;5597;47.588;9.642;2023-09-19T14:43:04;28.10;99.90
11087;DHT22;5597;47.588;9.642;2023-09-19T14:45:29;28.30;99.90
11087;DHT22;5597;47.588;9.642;2023-09-19T14:47:57;28.40;99.90
11087;DHT22;5597;47.588;9.642;2023-09-19T14:50:22;28.50;99.90
11087;DHT22;5597;47.588;9.642;2023-09-19T14:52:48;28.50;99.90
11087;DHT22;5597;47.588;9.642;2023-09-19T14:55:17;28.50;99.90
11087;DHT22;5597;47.588;9.642;2023-09-19T14:57:49;28.50;99.90
11087;DHT22;5597;47.588;9.642;2023-09-19T15:00:17;28.50;99.80
11087;DHT22;5597;47.588;9.642;2023-09-19T15:02:45;28.40;99.90
11087;DHT22;5597;47.588;9.642;2023-09-19T15:05:13;28.40;99.90
11087;DHT22;5597;47.588;9.642;2023-09-19T15:07:40;28.40;99.50
11087;DHT22;5597;47.588;9.642;2023-09-19T15:10:06;28.30;99.20
11087;DHT22;5597;47.588;9.642;2023-09-19T15:12:36;28.20;99.30
11087;DHT22;5597;47.588;9.642;2023-09-19T15:15:04;28.10;99.50
11087;DHT22;5597;47.588;9.642;2023-09-19T15:17:32;28.00;99.60
11087;DHT22;5597;47.588;9.642;2023-09-19T15:19:58;27.80;99.60
11087;DHT22;5597;47.588;9.642;2023-09-19T15:22:23;27.90;99.90
11087;DHT22;5597;47.588;9.642;2023-09-19T15:24:50;27.70;99.40
11087;DHT22;5597;47.588;9.642;2023-09-19T15:27:15;27.60;99.90
11087;DHT22;5597;47.588;9.642;2023-09-19T15:29:42;27.50;99.90
11087;DHT22;5597;47.588;9.642;2023-09-19T15:32:07;27.30;99.90
11087;DHT22;5597;47.588;9.642;2023-09-19T15:34:35;27.20;99.90
11087;DHT22;5597;47.588;9.642;2023-09-19T15:37:01;27.00;99.90
11087;DHT22;5597;47.588;9.642;2023-09-19T15:39:30;26.80;99.90
11087;DHT22;5597;47.588;9.642;2023-09-19T15:41:59;26.60;99.90
11087;DHT22;5597;47.588;9.642;2023-09-19T15:44:24;26.40;99.90
11087;DHT22;5597;47.588;9.642;2023-09-19T15:46:52;26.30;99.90
11087;DHT22;5597;47.588;9.642;2023-09-19T15:49:18;26.10;99.90
11087;DHT22;5597;47.588;9.642;2023-09-19T15:51:43;26.00;99.90
11087;DHT22;5597;47.588;9.642;2023-09-19T15:54:11;25.90;99.90
11087;DHT22;5597;47.588;9.642;2023-09-19T15:56:41;25.80;99.90
11087;DHT22;5597;47.588;9.642;2023-09-19T15:59:07;25.70;99.90
11087;DHT22;5597;47.588;9.642;2023-09-19T16:01:32;25.50;99.90
11087;DHT22;5597;47.588;9.642;2023-09-19T16:03:58;25.40;99.90
11087;DHT22;5597;47.588;9.642;2023-09-19T16:06:26;25.20;99.90
11087;DHT22;5597;47.588;9.642;2023-09-19T16:08:53;25.10;99.90
11087;DHT22;5597;47.588;9.642;2023-09-19T16:11:21;24.90;99.90
11087;DHT22;5597;47.588;9.642;2023-09-19T16:13:48;24.70;99.90
11087;DHT22;5597;47.588;9.642;2023-09-19T16:16:14;24.60;99.90
11087;DHT22;5597;47.588;9.642;2023-09-19T16:18:58;24.50;99.90
11087;DHT22;5597;47.588;9.642;2023-09-19T16:21:26;24.30;99.90
11087;DHT22;5597;47.588;9.642;2023-09-19T16:23:52;24.30;99.90
11087;DHT22;5597;47.588;9.642;2023-09-19T16:26:21;24.20;99.90
11087;DHT22;5597;47.588;9.642;2023-09-19T16:28:50;24.20;99.90
11087;DHT22;5597;47.588;9.642;2023-09-19T16:31:16;24.20;99.90
11087;DHT22;5597;47.588;9.642;2023-09-19T16:33:43;24.10;99.90
11087;DHT22;5597;47.588;9.642;2023-09-19T16:36:16;24.00;99.90
11087;DHT22;5597;47.588;9.642;2023-09-19T16:38:43;23.90;99.90
11087;DHT22;5597;47.588;9.642;2023-09-19T16:41:09;24.00;99.90
11087;DHT22;5597;47.588;9.642;2023-09-19T16:43:35;24.00;99.90
11087;DHT22;5597;47.588;9.642;2023-09-19T16:46:06;24.00;99.90
11087;DHT22;5597;47.588;9.642;2023-09-19T16:48:37;24.00;99.90
11087;DHT22;5597;47.588;9.642;2023-09-19T16:51:09;24.00;99.90
11087;DHT22;5597;47.588;9.642;2023-09-19T16:53:36;24.00;99.90
11087;DHT22;5597;47.588;9.642;2023-09-19T16:56:07;24.00;99.90
11087;DHT22;5597;47.588;9.642;2023-09-19T16:58:43;23.90;99.90